This is the latest recevied weather packets stored in our database for station/object W9WRP. If no packets are shown the sender has not sent any weather packets the latest 10 day(s).
| Time | Temp. | Humidity | Pressure | Rain* | Wind** | Luminosity | Snow |
|---|---|---|---|---|---|---|---|
| 1787776557 | 46.11° C | 12% | 1012.7 hPa | 0 mm | - | 688 W/m² | - |
| 1787776255 | 46.11° C | 12% | 1012.8 hPa | 0 mm | - | 692 W/m² | - |
| 1787775955 | 46.67° C | 12% | 1012.9 hPa | 0 mm | - | 695 W/m² | - |
| 1787775650 | 47.22° C | 11% | 1013.2 hPa | 0 mm | - | 699 W/m² | - |
| 1787775349 | 47.22° C | 12% | 1013.1 hPa | 0 mm | - | 703 W/m² | - |
| 1787775049 | 47.78° C | 11% | 1013.3 hPa | 0 mm | - | 707 W/m² | - |
| 1787774748 | 46.67° C | 12% | 1013.1 hPa | 0 mm | - | 709 W/m² | - |
| 1787774442 | 46.11° C | 12% | 1013.1 hPa | 0 mm | - | 713 W/m² | - |
| 1787774137 | 47.22° C | 12% | 1013.4 hPa | 0 mm | - | 714 W/m² | - |
| 1787773835 | 46.67° C | 12% | 1013.4 hPa | 0 mm | - | 713 W/m² | - |
| 1787773535 | 47.22° C | 12% | 1013.7 hPa | 0 mm | - | 717 W/m² | - |
| 1787773231 | 46.67° C | 12% | 1013.7 hPa | 0 mm | - | 717 W/m² | - |
| 1787772926 | 46.67° C | 12% | 1013.8 hPa | 0 mm | - | 715 W/m² | - |
| 1787772622 | 46.11° C | 12% | 1013.9 hPa | 0 mm | - | 716 W/m² | - |
| 1787772320 | 46.11° C | 13% | 1013.6 hPa | 0 mm | - | 713 W/m² | - |
| 1787772019 | 46.67° C | 12% | 1013.8 hPa | 0 mm | - | 712 W/m² | - |
| 1787771714 | 46.67° C | 12% | 1013.7 hPa | 0 mm | - | 710 W/m² | - |
| 1787771413 | 46.67° C | 12% | 1013.8 hPa | 0 mm | - | 709 W/m² | - |
| 1787771112 | 46.67° C | 12% | 1013.9 hPa | 0 mm | - | 707 W/m² | - |
| 1787770808 | 46.11° C | 13% | 1013.8 hPa | 0 mm | - | 703 W/m² | - |
| 1787770506 | 46.11° C | 12% | 1014 hPa | 0 mm | - | 697 W/m² | - |
| 1787770206 | 46.11° C | 12% | 1014.1 hPa | 0 mm | - | 696 W/m² | - |
| 1787769905 | 46.67° C | 12% | 1013.9 hPa | 0 mm | - | 692 W/m² | - |
| 1787769600 | 46.67° C | 11% | 1014.3 hPa | 0 mm | - | 684 W/m² | - |
| 1787769298 | 46.11° C | 12% | 1014.1 hPa | 0 mm | - | 679 W/m² | - |
* Rain latest hour (hover to see other rain measurements)
** Current wind speed in m/s (hover to see current wind gust speed)